Time;durP1;ratioP1;P1;durP2;ratioP2;P2;SDS_P1;SDS_P2;PMS_P1;PMS_P2;Temp;Humidity;BMP_temperature;BMP_pressure;BME280_temperature;BME280_humidity;BME280_pressure;Samples;Min_cycle;Max_cycle;Signal;HPM_P1;HPM_P2
2023/05/21 00:01:02;;;;;;;;;;;;;;;12.96;73.89;101853.53;5018460;28;19916;-50
2023/05/21 00:03:29;;;;;;;;;;;;;;;12.95;74.47;101866.41;5018853;28;19917;-52
2023/05/21 00:05:54;;;;;;;;;;;;;;;12.91;74.24;101869.69;5016022;28;20368;-50
2023/05/21 00:08:19;;;;;;;;;;;;;;;12.87;74.58;101864.44;5017768;28;19928;-51
2023/05/21 00:10:45;;;;;;;;;;;;;;;12.86;76.69;101870.44;5019962;28;19935;-48
2023/05/21 00:13:10;;;;;;;;;;;;;;;12.83;75.42;101852.25;5016531;28;19931;-49
2023/05/21 00:15:35;;;;;;;;;;;;;;;12.84;75.31;101863.44;5017723;28;19928;-48
2023/05/21 00:18:01;;;;;;;;;;;;;;;12.81;77.48;101868.53;5020773;28;19929;-49
2023/05/21 00:20:28;;;;;;;;;;;;;;;12.77;76.23;101857.19;5019367;28;19917;-47
2023/05/21 00:22:53;;;;;;;;;;;;;;;12.75;74.98;101858.84;5018568;28;20051;-49
2023/05/21 00:25:18;;;;;;;;;;;;;;;12.72;76.04;101853.56;5018282;28;20036;-50
2023/05/21 00:27:44;;;;;;;;;;;;;;;12.69;76.44;101850.03;5019589;28;20379;-48
2023/05/21 00:30:09;;;;;;;;;;;;;;;12.69;73.74;101852.59;5021851;28;19932;-48
2023/05/21 00:32:35;;;;;;;;;;;;;;;12.66;74.92;101850.78;5018778;28;19972;-50
2023/05/21 00:35:01;;;;;;;;;;;;;;;12.65;76.34;101851.59;5018310;28;19923;-50
2023/05/21 00:37:31;;;;;;;;;;;;;;;12.66;77.25;101852.47;5020102;28;19932;-48
2023/05/21 00:39:56;;;;;;;;;;;;;;;12.64;77.57;101849.84;5010159;28;20426;-49
2023/05/21 00:42:26;;;;;;;;;;;;;;;12.63;76.93;101848.09;5022451;28;19925;-49
2023/05/21 00:44:52;;;;;;;;;;;;;;;12.61;79.36;101848.03;5024659;28;19925;-50
2023/05/21 00:47:20;;;;;;;;;;;;;;;12.60;78.68;101841.13;5018195;28;19933;-49
2023/05/21 00:49:47;;;;;;;;;;;;;;;12.59;79.31;101843.66;5017236;28;19929;-48
2023/05/21 00:52:12;;;;;;;;;;;;;;;12.59;76.91;101838.50;5021393;28;20020;-51
2023/05/21 00:54:38;;;;;;;;;;;;;;;12.57;78.06;101840.16;5020318;28;20032;-50
2023/05/21 00:57:03;;;;;;;;;;;;;;;12.54;79.39;101840.91;5019472;28;19928;-48
2023/05/21 00:59:30;;;;;;;;;;;;;;;12.57;78.42;101845.31;5012319;28;19922;-47
2023/05/21 01:01:55;;;;;;;;;;;;;;;12.54;79.65;101840.03;5019820;28;20276;-46
2023/05/21 01:04:23;;;;;;;;;;;;;;;12.53;80.49;101841.72;5020364;28;19928;-49
2023/05/21 01:06:49;;;;;;;;;;;;;;;12.51;79.83;101837.34;5017567;28;20286;-47
2023/05/21 01:09:14;;;;;;;;;;;;;;;12.52;80.43;101844.25;5019108;28;20375;-48
2023/05/21 01:11:41;;;;;;;;;;;;;;;12.50;78.15;101841.63;5020387;28;20345;-49
2023/05/21 01:14:11;;;;;;;;;;;;;;;12.50;80.10;101838.19;5016144;28;19928;-49
2023/05/21 01:16:37;;;;;;;;;;;;;;;12.50;81.60;101838.19;5022983;28;19929;-48
2023/05/21 01:19:04;;;;;;;;;;;;;;;12.50;80.31;101833.91;5019114;28;19918;-46
2023/05/21 01:21:29;;;;;;;;;;;;;;;12.50;78.35;101835.59;5019269;28;20398;-47
2023/05/21 01:23:55;;;;;;;;;;;;;;;12.47;79.07;101836.34;5016788;28;19921;-47
2023/05/21 01:26:21;;;;;;;;;;;;;;;12.47;81.59;101831.19;5020261;28;19924;-48
2023/05/21 01:28:46;;;;;;;;;;;;;;;12.45;79.78;101831.97;5018372;28;20399;-48
2023/05/21 01:31:25;;;;;;;;;;;;;;;12.45;80.56;101827.69;5018015;28;20338;-47
2023/05/21 01:33:50;;;;;;;;;;;;;;;12.48;81.66;101829.47;5018354;28;19939;-48
2023/05/21 01:36:25;;;;;;;;;;;;;;;12.49;82.78;101824.38;5021647;28;19922;-47
2023/05/21 01:39:00;;;;;;;;;;;;;;;12.52;82.03;101826.19;5027847;28;19976;-46
2023/05/21 01:41:28;;;;;;;;;;;;;;;12.55;82.73;101827.16;5021314;28;19963;-46
2023/05/21 01:43:55;;;;;;;;;;;;;;;12.56;82.07;101822.91;5023005;28;19917;-47
2023/05/21 01:46:22;;;;;;;;;;;;;;;12.59;77.66;101817.84;5017136;28;19980;-48
2023/05/21 01:48:48;;;;;;;;;;;;;;;12.64;81.61;101829.22;5023963;28;19917;-46
2023/05/21 01:51:14;;;;;;;;;;;;;;;12.67;81.59;101823.25;5024362;28;19931;-51
2023/05/21 01:53:39;;;;;;;;;;;;;;;12.72;82.02;101822.59;5017335;28;19930;-51
2023/05/21 01:56:05;;;;;;;;;;;;;;;12.74;81.49;101822.66;5025608;28;19987;-50
2023/05/21 01:58:30;;;;;;;;;;;;;;;12.78;80.22;101821.94;5021133;28;20007;-50
2023/05/21 02:00:55;;;;;;;;;;;;;;;12.80;79.95;101820.28;5019945;28;19928;-51
2023/05/21 02:03:24;;;;;;;;;;;;;;;12.85;82.35;101818.72;5018468;28;19921;-50
2023/05/21 02:05:50;;;;;;;;;;;;;;;12.86;81.20;101813.66;5019501;28;19918;-51
2023/05/21 02:08:18;;;;;;;;;;;;;;;12.91;81.54;101818.06;5019625;28;19921;-49
2023/05/21 02:10:43;;;;;;;;;;;;;;;12.95;80.80;101812.19;5018749;28;20515;-48
2023/05/21 02:13:08;;;;;;;;;;;;;;;12.98;80.47;101804.53;5022354;28;20011;-49
2023/05/21 02:15:34;;;;;;;;;;;;;;;13.02;81.52;101811.56;5019928;28;19925;-47
2023/05/21 02:17:59;;;;;;;;;;;;;;;13.08;81.26;101814.34;5021146;28;19925;-51
2023/05/21 02:20:24;;;;;;;;;;;;;;;13.11;81.40;101811.88;5019959;28;19948;-47
2023/05/21 02:22:50;;;;;;;;;;;;;;;13.15;80.63;101808.56;5020228;28;19930;-48
2023/05/21 02:25:15;;;;;;;;;;;;;;;13.19;79.31;101815.59;5023781;28;19928;-48
2023/05/21 02:27:41;;;;;;;;;;;;;;;13.20;82.01;101812.16;5023146;28;20423;-47
2023/05/21 02:30:08;;;;;;;;;;;;;;;13.23;79.52;101814.91;5022910;28;19917;-49
2023/05/21 02:32:33;;;;;;;;;;;;;;;13.24;79.99;101814.06;5021589;28;19925;-48
2023/05/21 02:34:59;;;;;;;;;;;;;;;13.29;80.25;101809.94;5021255;28;19928;-47
2023/05/21 02:37:28;;;;;;;;;;;;;;;13.30;81.40;101811.66;5025485;28;19924;-47
2023/05/21 02:39:54;;;;;;;;;;;;;;;13.31;80.08;101810.84;5021721;28;19917;-47
2023/05/21 02:42:20;;;;;;;;;;;;;;;13.34;81.59;101810.91;5021979;28;19925;-48
2023/05/21 02:44:45;;;;;;;;;;;;;;;13.38;81.90;101814.50;5020718;28;19968;-51
2023/05/21 02:47:11;;;;;;;;;;;;;;;13.39;81.03;101811.94;5018366;28;19968;-49
2023/05/21 02:49:36;;;;;;;;;;;;;;;13.39;82.01;101803.31;5018565;28;19929;-50
2023/05/21 02:52:02;;;;;;;;;;;;;;;13.40;79.71;101800.78;5019817;28;19949;-51
2023/05/21 02:54:27;;;;;;;;;;;;;;;13.39;80.08;101798.16;5024695;28;19934;-51
2023/05/21 02:56:52;;;;;;;;;;;;;;;13.41;81.15;101799.97;5021196;28;19925;-52
2023/05/21 02:59:17;;;;;;;;;;;;;;;13.41;81.45;101797.41;5020347;28;20405;-52
2023/05/21 03:01:43;;;;;;;;;;;;;;;13.42;82.20;101793.09;5015484;28;20491;-51
2023/05/21 03:04:09;;;;;;;;;;;;;;;13.42;81.88;101798.28;5018389;28;20409;-47
2023/05/21 03:06:35;;;;;;;;;;;;;;;13.43;82.73;101788.81;5020854;28;19960;-48
2023/05/21 03:09:01;;;;;;;;;;;;;;;13.43;82.14;101791.41;5020622;28;19924;-47
2023/05/21 03:11:26;;;;;;;;;;;;;;;13.42;82.75;101793.09;5017865;28;19926;-47
2023/05/21 03:13:52;;;;;;;;;;;;;;;13.41;82.97;101792.22;5018108;28;19925;-48
2023/05/21 03:16:17;;;;;;;;;;;;;;;13.41;82.64;101789.66;5025475;28;20062;-47
2023/05/21 03:18:43;;;;;;;;;;;;;;;13.40;82.17;101787.88;5022462;28;20018;-48
2023/05/21 03:21:12;;;;;;;;;;;;;;;13.40;82.14;101781.81;5021383;28;20260;-47
2023/05/21 03:23:37;;;;;;;;;;;;;;;13.39;83.99;101783.53;5018784;28;20299;-50
2023/05/21 03:26:03;;;;;;;;;;;;;;;13.40;83.76;101777.53;5017955;28;19929;-48
2023/05/21 03:28:28;;;;;;;;;;;;;;;13.38;82.62;101775.75;5017814;28;19925;-49
2023/05/21 03:30:54;;;;;;;;;;;;;;;13.36;82.41;101769.66;5020718;28;19936;-49
2023/05/21 03:33:19;;;;;;;;;;;;;;;13.35;83.68;101776.53;5016963;28;20062;-46
2023/05/21 03:35:44;;;;;;;;;;;;;;;13.33;83.48;101775.59;5018740;28;19925;-47
2023/05/21 03:38:09;;;;;;;;;;;;;;;13.33;83.38;101772.13;5018335;28;19941;-46
2023/05/21 03:40:35;;;;;;;;;;;;;;;13.29;84.53;101772.88;5018039;28;19928;-47
2023/05/21 03:43:00;;;;;;;;;;;;;;;13.28;84.10;101774.56;5018772;28;20015;-47
2023/05/21 03:45:25;;;;;;;;;;;;;;;13.26;85.38;101773.66;5019682;28;19921;-49
2023/05/21 03:47:50;;;;;;;;;;;;;;;13.22;84.58;101779.53;5019406;28;20387;-48
2023/05/21 03:50:16;;;;;;;;;;;;;;;13.22;84.13;101779.53;5017061;28;19993;-46
2023/05/21 03:52:41;;;;;;;;;;;;;;;13.21;84.40;101779.50;5016961;28;20012;-48
2023/05/21 03:55:07;;;;;;;;;;;;;;;13.21;84.04;101779.50;5019078;28;19925;-50
2023/05/21 03:57:32;;;;;;;;;;;;;;;13.17;84.85;101783.66;5019155;28;19932;-53
2023/05/21 03:59:57;;;;;;;;;;;;;;;13.17;83.97;101785.38;5020447;28;20418;-54
2023/05/21 04:02:25;;;;;;;;;;;;;;;13.15;84.69;101782.72;5018427;28;19965;-53
2023/05/21 04:04:52;;;;;;;;;;;;;;;13.14;85.38;101786.13;5015202;28;19921;-53
2023/05/21 04:07:17;;;;;;;;;;;;;;;13.12;86.27;101774.91;5015118;28;19929;-54
2023/05/21 04:09:43;;;;;;;;;;;;;;;13.11;83.61;101778.31;5019257;28;19952;-53
2023/05/21 04:12:08;;;;;;;;;;;;;;;13.08;85.63;101783.34;5019824;28;19921;-54
2023/05/21 04:14:34;;;;;;;;;;;;;;;13.06;85.83;101780.72;5021842;28;20570;-53
2023/05/21 04:16:59;;;;;;;;;;;;;;;13.06;86.79;101779.84;5019251;28;20336;-53
2023/05/21 04:19:24;;;;;;;;;;;;;;;13.06;84.02;101785.03;5014628;28;19921;-52
2023/05/21 04:21:50;;;;;;;;;;;;;;;13.05;85.50;101791.91;5018051;28;19951;-55
2023/05/21 04:24:15;;;;;;;;;;;;;;;13.04;86.97;101779.81;5017411;28;20470;-54
2023/05/21 04:26:40;;;;;;;;;;;;;;;13.06;86.74;101787.59;5014642;28;20364;-53
2023/05/21 04:29:06;;;;;;;;;;;;;;;13.04;84.82;101784.06;5012415;28;20372;-54
2023/05/21 04:31:31;;;;;;;;;;;;;;;13.05;87.07;101786.72;5012427;28;19921;-53
2023/05/21 04:33:56;;;;;;;;;;;;;;;13.05;87.63;101789.31;5016571;28;20075;-55
2023/05/21 04:36:23;;;;;;;;;;;;;;;13.06;87.21;101785.03;5020224;28;19925;-54
2023/05/21 04:38:48;;;;;;;;;;;;;;;13.06;87.74;101782.44;5017076;28;20431;-54
2023/05/21 04:41:14;;;;;;;;;;;;;;;13.07;86.59;101784.19;5013133;28;19919;-54
2023/05/21 04:43:42;;;;;;;;;;;;;;;13.09;85.89;101791.16;5021278;28;19917;-53
2023/05/21 04:46:08;;;;;;;;;;;;;;;13.09;87.16;101791.16;5022770;28;19924;-56
2023/05/21 04:48:33;;;;;;;;;;;;;;;13.11;84.63;101792.09;5021626;28;19922;-53
2023/05/21 04:50:58;;;;;;;;;;;;;;;13.14;84.93;101786.13;5019948;28;19922;-54
2023/05/21 04:53:24;;;;;;;;;;;;;;;13.14;86.72;101787.00;5016710;28;19925;-54
2023/05/21 04:55:50;;;;;;;;;;;;;;;13.17;86.32;101786.25;5018907;28;20329;-53
2023/05/21 04:58:17;;;;;;;;;;;;;;;13.18;86.00;101790.59;5020404;28;19926;-54
2023/05/21 05:00:45;;;;;;;;;;;;;;;13.21;87.09;101790.69;5018849;28;19964;-53
2023/05/21 05:03:11;;;;;;;;;;;;;;;13.22;85.30;101792.44;5020739;28;19936;-54
2023/05/21 05:05:36;;;;;;;;;;;;;;;13.25;85.90;101789.09;5021844;28;20314;-53
2023/05/21 05:08:02;;;;;;;;;;;;;;;13.26;85.88;101789.16;5015350;28;19921;-55
2023/05/21 05:10:28;;;;;;;;;;;;;;;13.28;86.14;101792.66;5020492;28;19928;-54
2023/05/21 05:12:53;;;;;;;;;;;;;;;13.27;86.75;101792.59;5023656;28;20031;-54
2023/05/21 05:15:18;;;;;;;;;;;;;;;13.27;86.88;101793.47;5024511;28;19926;-53
2023/05/21 05:17:43;;;;;;;;;;;;;;;13.25;87.58;101789.09;5025346;28;19956;-54
2023/05/21 05:20:10;;;;;;;;;;;;;;;13.25;86.82;101789.09;5022731;28;20020;-53
2023/05/21 05:22:35;;;;;;;;;;;;;;;13.24;86.56;101777.91;5021380;28;19917;-52
2023/05/21 05:25:00;;;;;;;;;;;;;;;13.27;87.55;101787.44;5021662;28;19933;-54
2023/05/21 05:27:25;;;;;;;;;;;;;;;13.26;87.13;101783.97;5021785;28;19929;-52
2023/05/21 05:29:51;;;;;;;;;;;;;;;13.28;86.13;101779.72;5019871;28;19921;-53
2023/05/21 05:32:16;;;;;;;;;;;;;;;13.31;86.28;101786.72;5023974;28;19925;-54
2023/05/21 05:34:43;;;;;;;;;;;;;;;13.33;86.45;101787.63;5022356;28;20644;-54
2023/05/21 05:37:09;;;;;;;;;;;;;;;13.34;87.96;101789.38;5020129;28;19929;-53
2023/05/21 05:39:34;;;;;;;;;;;;;;;13.37;86.19;101784.31;5022528;28;19970;-54
2023/05/21 05:42:00;;;;;;;;;;;;;;;13.41;88.08;101784.47;5020048;28;20036;-53
2023/05/21 05:44:25;;;;;;;;;;;;;;;13.48;88.13;101792.41;5021603;28;19968;-53
2023/05/21 05:46:51;;;;;;;;;;;;;;;13.53;88.09;101785.66;5019175;28;22026;-54
2023/05/21 05:49:16;;;;;;;;;;;;;;;13.58;87.10;101786.69;5023068;28;19921;-54
2023/05/21 05:51:41;;;;;;;;;;;;;;;13.63;85.36;101788.56;5021351;28;19925;-54
2023/05/21 05:54:06;;;;;;;;;;;;;;;13.69;85.87;101788.75;5025436;28;19928;-55
2023/05/21 05:56:32;;;;;;;;;;;;;;;13.77;87.11;101793.28;5021998;28;19929;-54
2023/05/21 05:58:57;;;;;;;;;;;;;;;13.80;86.82;101789.09;5015102;28;20380;-54
2023/05/21 06:01:23;;;;;;;;;;;;;;;13.86;86.89;101791.84;5019682;28;19921;-53
2023/05/21 06:03:48;;;;;;;;;;;;;;;13.91;85.96;101790.28;5018252;28;20060;-56
2023/05/21 06:06:14;;;;;;;;;;;;;;;13.94;87.13;101787.78;5022349;28;20391;-53
2023/05/21 06:08:39;;;;;;;;;;;;;;;14.03;85.60;101794.06;5021152;28;20299;-54
2023/05/21 06:11:04;;;;;;;;;;;;;;;14.12;86.53;101792.59;5018448;28;19948;-52
2023/05/21 06:13:30;;;;;;;;;;;;;;;14.21;85.79;101790.28;5022107;28;19924;-55
2023/05/21 06:15:56;;;;;;;;;;;;;;;14.33;85.52;101794.91;5023444;28;19918;-54
2023/05/21 06:18:21;;;;;;;;;;;;;;;14.46;85.00;101794.44;5020640;28;19956;-53
2023/05/21 06:20:46;;;;;;;;;;;;;;;14.59;84.72;101790.47;5025408;28;19992;-53
2023/05/21 06:23:11;;;;;;;;;;;;;;;14.69;84.38;101789.00;5021677;28;20426;-53
2023/05/21 06:25:37;;;;;;;;;;;;;;;14.76;84.18;101780.56;5025384;28;19971;-55
2023/05/21 06:28:02;;;;;;;;;;;;;;;14.96;84.27;101784.50;5020560;28;20284;-55
2023/05/21 06:30:27;;;;;;;;;;;;;;;15.20;83.45;101784.22;5039394;28;19929;-54
2023/05/21 06:32:52;;;;;;;;;;;;;;;15.31;82.92;101784.50;5022407;28;19931;-53
2023/05/21 06:35:18;;;;;;;;;;;;;;;15.42;82.62;101783.03;5023165;28;19957;-55
2023/05/21 06:37:43;;;;;;;;;;;;;;;15.55;81.78;101781.59;5021466;28;19925;-54
2023/05/21 06:40:08;;;;;;;;;;;;;;;15.73;81.78;101781.16;5020226;28;19956;-54
2023/05/21 06:42:33;;;;;;;;;;;;;;;15.96;80.69;101790.28;5018418;28;20350;-55
2023/05/21 06:45:00;;;;;;;;;;;;;;;16.14;80.39;101792.38;5021145;28;19956;-53
2023/05/21 06:47:25;;;;;;;;;;;;;;;16.24;80.01;101773.53;5021175;28;20391;-54
2023/05/21 06:49:50;;;;;;;;;;;;;;;16.44;78.87;101780.81;5020690;28;19976;-54
2023/05/21 06:52:16;;;;;;;;;;;;;;;16.50;78.96;101780.94;5018646;28;19932;-55
2023/05/21 06:54:41;;;;;;;;;;;;;;;16.60;78.11;101777.66;5018640;28;20391;-54
2023/05/21 06:57:06;;;;;;;;;;;;;;;16.69;78.11;101784.75;5020601;28;20358;-56
2023/05/21 06:59:31;;;;;;;;;;;;;;;16.77;77.29;101778.88;5018096;28;20135;-55
2023/05/21 07:01:57;;;;;;;;;;;;;;;16.85;77.07;101779.00;5020443;28;19926;-56
2023/05/21 07:04:22;;;;;;;;;;;;;;;16.75;76.90;101779.72;5019386;28;19929;-56
2023/05/21 07:06:47;;;;;;;;;;;;;;;16.72;76.63;101770.13;5022094;28;19929;-55
2023/05/21 07:09:12;;;;;;;;;;;;;;;16.64;77.38;101779.47;5020528;28;19936;-56
2023/05/21 07:11:38;;;;;;;;;;;;;;;16.61;76.94;101769.91;5020997;28;19925;-56
2023/05/21 07:14:03;;;;;;;;;;;;;;;16.63;77.36;101763.03;5022202;28;19925;-56
2023/05/21 07:16:28;;;;;;;;;;;;;;;16.81;76.03;101756.44;5021531;28;20015;-56
2023/05/21 07:18:54;;;;;;;;;;;;;;;16.75;76.97;101758.94;5021335;28;19928;-56
2023/05/21 07:21:19;;;;;;;;;;;;;;;16.92;77.10;101760.06;5019501;28;19963;-56
2023/05/21 07:23:44;;;;;;;;;;;;;;;17.03;75.39;101761.09;5024486;28;20395;-56
2023/05/21 07:26:10;;;;;;;;;;;;;;;17.08;75.99;101759.47;5019768;28;19921;-55
2023/05/21 07:28:35;;;;;;;;;;;;;;;17.06;75.54;101755.97;5020779;28;20598;-55
2023/05/21 07:31:00;;;;;;;;;;;;;;;17.21;75.21;101762.25;5024651;28;19927;-56
2023/05/21 07:33:26;;;;;;;;;;;;;;;17.32;74.64;101763.28;5019754;28;20926;-56
2023/05/21 07:35:51;;;;;;;;;;;;;;;17.44;74.58;101768.66;5023163;28;19940;-55
2023/05/21 07:38:17;;;;;;;;;;;;;;;17.60;74.79;101767.16;5021161;28;19930;-55
2023/05/21 07:40:42;;;;;;;;;;;;;;;17.69;73.66;101762.94;5023302;28;20384;-56
2023/05/21 07:43:07;;;;;;;;;;;;;;;17.89;74.55;101762.34;5016288;28;19921;-56
2023/05/21 07:45:32;;;;;;;;;;;;;;;18.21;73.02;101755.81;5021568;28;20023;-56
2023/05/21 07:47:57;;;;;;;;;;;;;;;18.38;71.79;101755.09;5020855;28;20055;-55
2023/05/21 07:50:24;;;;;;;;;;;;;;;18.39;71.37;101749.03;5020421;28;20678;-57
2023/05/21 07:52:49;;;;;;;;;;;;;;;18.60;71.27;101754.44;5022954;28;19944;-57
2023/05/21 07:55:14;;;;;;;;;;;;;;;18.52;70.72;101755.25;5020023;28;20380;-55
2023/05/21 07:57:40;;;;;;;;;;;;;;;18.38;70.18;101752.47;5022593;28;19929;-55
2023/05/21 08:00:08;;;;;;;;;;;;;;;18.24;71.02;101749.75;5016680;28;19921;-57
2023/05/21 08:02:33;;;;;;;;;;;;;;;18.32;71.93;101752.41;5020885;28;20324;-56
2023/05/21 08:05:00;;;;;;;;;;;;;;;18.52;69.94;101753.50;5020144;28;20351;-56
2023/05/21 08:07:26;;;;;;;;;;;;;;;18.47;70.44;101752.59;5017397;28;19922;-56
2023/05/21 08:09:52;;;;;;;;;;;;;;;18.71;69.42;101752.84;5020302;28;20344;-57
2023/05/21 08:12:18;;;;;;;;;;;;;;;18.70;70.00;101760.66;5019603;28;19932;-56
2023/05/21 08:14:43;;;;;;;;;;;;;;;18.87;70.04;101752.94;5020033;28;20157;-56
2023/05/21 08:17:12;;;;;;;;;;;;;;;18.99;68.13;101755.69;5018750;28;19961;-57
2023/05/21 08:19:37;;;;;;;;;;;;;;;18.79;69.54;101749.44;5019519;28;19917;-56
2023/05/21 08:22:02;;;;;;;;;;;;;;;18.80;68.47;101753.78;5017893;28;20300;-57
2023/05/21 08:24:27;;;;;;;;;;;;;;;19.00;68.87;101750.47;5012394;28;21626;-56
2023/05/21 08:26:53;;;;;;;;;;;;;;;19.17;67.75;101749.72;5019009;28;19960;-56
2023/05/21 08:29:18;;;;;;;;;;;;;;;19.26;67.93;101749.78;5022766;28;20298;-56
2023/05/21 08:31:43;;;;;;;;;;;;;;;19.27;68.60;101739.34;5020365;28;20027;-56
2023/05/21 08:34:08;;;;;;;;;;;;;;;19.42;66.49;101750.75;5022808;28;20020;-56
2023/05/21 08:36:34;;;;;;;;;;;;;;;19.24;67.74;101744.56;5020309;28;19971;-55
2023/05/21 08:39:00;;;;;;;;;;;;;;;19.16;68.20;101746.22;5022331;28;19935;-56
2023/05/21 08:41:26;;;;;;;;;;;;;;;19.19;67.67;101733.22;5018927;28;19921;-56
2023/05/21 08:43:55;;;;;;;;;;;;;;;19.38;67.89;101723.78;5023610;28;19929;-55
2023/05/21 08:46:22;;;;;;;;;;;;;;;19.51;67.25;101724.72;5023824;28;19970;-56
2023/05/21 08:48:47;;;;;;;;;;;;;;;19.65;66.83;101735.22;5023507;28;19925;-56
2023/05/21 08:51:13;;;;;;;;;;;;;;;19.69;67.15;101734.41;5026107;28;19936;-56
2023/05/21 08:53:38;;;;;;;;;;;;;;;19.87;65.73;101734.47;5025476;28;19926;-56
2023/05/21 08:56:04;;;;;;;;;;;;;;;19.95;66.69;101727.53;5026701;28;20567;-56
2023/05/21 08:58:31;;;;;;;;;;;;;;;20.02;65.31;101724.09;5025945;28;19921;-55
2023/05/21 09:00:56;;;;;;;;;;;;;;;19.96;65.78;101724.06;5024474;28;19935;-56
2023/05/21 09:03:22;;;;;;;;;;;;;;;19.95;65.26;101722.31;5025158;28;20286;-57
2023/05/21 09:05:48;;;;;;;;;;;;;;;20.00;65.30;101719.72;5024743;28;19980;-56
2023/05/21 09:08:17;;;;;;;;;;;;;;;20.01;65.17;101718.84;5023481;28;20463;-55
2023/05/21 09:10:50;;;;;;;;;;;;;;;20.01;66.16;101716.22;5023519;28;19925;-56
2023/05/21 09:13:18;;;;;;;;;;;;;;;20.03;65.96;101707.56;5025004;28;19925;-56
2023/05/21 09:15:44;;;;;;;;;;;;;;;20.13;65.34;101723.22;5024303;28;19924;-56
2023/05/21 09:18:10;;;;;;;;;;;;;;;20.18;65.93;101719.75;5023247;28;19917;-56
2023/05/21 09:20:35;;;;;;;;;;;;;;;20.30;64.87;101726.75;5020970;28;19917;-56
2023/05/21 09:23:05;;;;;;;;;;;;;;;20.38;63.92;101726.75;5020261;28;19929;-56
2023/05/21 09:25:31;;;;;;;;;;;;;;;20.24;65.33;101721.50;5022812;28;19922;-56
2023/05/21 09:27:56;;;;;;;;;;;;;;;20.39;64.62;101723.28;5025004;28;19940;-56
2023/05/21 09:30:21;;;;;;;;;;;;;;;20.30;64.38;101714.56;5025087;28;20283;-56
2023/05/21 09:32:51;;;;;;;;;;;;;;;20.25;64.98;101721.50;5026412;28;19932;-56
2023/05/21 09:35:17;;;;;;;;;;;;;;;20.36;64.77;101722.41;5025366;28;19924;-56
2023/05/21 09:37:43;;;;;;;;;;;;;;;20.49;64.13;101715.47;5022845;28;20375;-56
2023/05/21 09:40:09;;;;;;;;;;;;;;;20.51;63.25;101721.59;5020067;28;19918;-58
2023/05/21 09:42:34;;;;;;;;;;;;;;;20.54;64.17;101716.34;5024632;28;19924;-55
2023/05/21 09:45:00;;;;;;;;;;;;;;;20.50;64.03;101713.72;5024578;28;19921;-56
2023/05/21 09:47:25;;;;;;;;;;;;;;;20.68;63.71;101718.97;5023017;28;19925;-56
2023/05/21 09:49:50;;;;;;;;;;;;;;;20.71;63.43;101708.53;5022336;28;20186;-56
2023/05/21 09:52:22;;;;;;;;;;;;;;;20.81;64.03;101706.75;5025607;28;19921;-57
2023/05/21 09:54:47;;;;;;;;;;;;;;;20.93;62.94;101703.25;5022296;28;19982;-55
2023/05/21 09:57:13;;;;;;;;;;;;;;;20.99;63.04;101704.16;5023867;28;19925;-56
2023/05/21 09:59:38;;;;;;;;;;;;;;;21.18;61.72;101702.38;5026245;28;19929;-56
2023/05/21 10:02:14;;;;;;;;;;;;;;;21.09;62.42;101705.84;5022949;28;20543;-54
2023/05/21 10:04:40;;;;;;;;;;;;;;;21.10;62.68;101704.09;5025608;28;19925;-56
2023/05/21 10:07:06;;;;;;;;;;;;;;;21.19;61.41;101701.50;5025256;28;19921;-55
2023/05/21 10:09:31;;;;;;;;;;;;;;;21.09;62.11;101705.84;5023369;28;19925;-56
2023/05/21 10:11:57;;;;;;;;;;;;;;;21.06;61.24;101705.88;5023572;28;19929;-56
2023/05/21 10:14:24;;;;;;;;;;;;;;;20.88;62.50;101705.91;5025302;28;19929;-55
2023/05/21 10:16:51;;;;;;;;;;;;;;;20.96;62.09;101696.28;5023832;28;19925;-56
2023/05/21 10:19:17;;;;;;;;;;;;;;;21.05;62.07;101693.69;5022117;28;19917;-56
2023/05/21 10:21:44;;;;;;;;;;;;;;;21.20;62.13;101694.50;5021299;28;19925;-56
2023/05/21 10:24:09;;;;;;;;;;;;;;;21.26;61.63;101686.66;5023450;28;20015;-56
2023/05/21 10:26:35;;;;;;;;;;;;;;;21.21;61.59;101689.25;5023623;28;20732;-56
2023/05/21 10:29:01;;;;;;;;;;;;;;;21.31;60.89;101685.78;5018660;28;19928;-56
2023/05/21 10:31:27;;;;;;;;;;;;;;;21.41;61.60;101677.00;5022580;28;20004;-55
2023/05/21 10:33:53;;;;;;;;;;;;;;;21.46;60.83;101673.53;5022126;28;20027;-55
2023/05/21 10:36:20;;;;;;;;;;;;;;;21.53;61.50;101685.69;5022276;28;20406;-56
2023/05/21 10:38:46;;;;;;;;;;;;;;;21.55;60.59;101674.38;5023237;28;19925;-54
2023/05/21 10:41:12;;;;;;;;;;;;;;;21.40;61.07;101664.81;5020773;28;19921;-55
2023/05/21 10:43:56;;;;;;;;;;;;;;;21.40;60.94;101670.03;5020768;28;21816;-55
2023/05/21 10:46:35;;;;;;;;;;;;;;;21.45;61.69;101654.34;5017883;28;19956;-55
2023/05/21 10:49:21;;;;;;;;;;;;;;;21.66;59.94;101656.00;5019386;28;20399;-55
2023/05/21 10:51:46;;;;;;;;;;;;;;;21.71;60.77;101655.94;5021251;28;20257;-56
2023/05/21 10:54:17;;;;;;;;;;;;;;;21.78;60.47;101661.16;5022916;28;20386;-55
2023/05/21 10:57:05;;;;;;;;;;;;;;;21.77;60.17;101651.56;5019769;28;19947;-57
2023/05/21 10:59:34;;;;;;;;;;;;;;;21.68;59.85;101652.47;5021936;28;19918;-56
2023/05/21 11:02:00;;;;;;;;;;;;;;;21.65;60.57;101649.88;5023076;28;20455;-56
2023/05/21 11:04:26;;;;;;;;;;;;;;;21.83;60.50;101642.78;5022922;28;20019;-56
2023/05/21 11:06:51;;;;;;;;;;;;;;;22.02;60.24;101636.56;5021126;28;19972;-56
2023/05/21 11:09:17;;;;;;;;;;;;;;;22.14;59.31;101630.38;5022693;28;20296;-57
2023/05/21 11:11:42;;;;;;;;;;;;;;;22.19;58.50;101626.00;5020930;28;19921;-56
2023/05/21 11:14:26;;;;;;;;;;;;;;;22.11;59.20;101627.81;5022092;28;20890;-56
2023/05/21 11:16:52;;;;;;;;;;;;;;;22.18;58.22;101621.63;5021382;28;20051;-56
2023/05/21 11:19:17;;;;;;;;;;;;;;;22.07;59.96;101624.28;5023510;28;21187;-56
2023/05/21 11:21:42;;;;;;;;;;;;;;;22.23;59.49;101619.84;5021864;28;19929;-55
2023/05/21 11:24:09;;;;;;;;;;;;;;;22.43;58.71;101623.16;5019703;28;20335;-55
2023/05/21 11:26:46;;;;;;;;;;;;;;;22.56;58.23;101613.44;5022288;28;19983;-57
2023/05/21 11:29:12;;;;;;;;;;;;;;;22.53;58.23;101612.63;5021172;28;19928;-56
2023/05/21 11:31:37;;;;;;;;;;;;;;;22.47;58.62;101619.66;5022953;28;19932;-55
2023/05/21 11:34:13;;;;;;;;;;;;;;;22.57;58.69;101606.44;5021695;28;19928;-56
2023/05/21 11:36:38;;;;;;;;;;;;;;;22.71;57.88;101599.31;5020984;28;19917;-56
2023/05/21 11:39:04;;;;;;;;;;;;;;;;;;5019199;28;19936;-55
2023/05/21 11:41:29;;;;;;;;;;;;;;;22.93;57.73;101595.63;5019333;28;19918;-55
2023/05/21 11:44:00;;;;;;;;;;;;;;;23.08;56.77;101588.44;5021808;28;19936;-56
2023/05/21 11:46:26;;;;;;;;;;;;;;;23.17;56.96;101591.81;5023045;28;19921;-55
2023/05/21 11:48:51;;;;;;;;;;;;;;;23.18;56.70;101593.56;5017451;28;19975;-56
2023/05/21 11:51:16;;;;;;;;;;;;;;;23.13;56.54;101592.75;5019515;28;19972;-56
2023/05/21 11:53:41;;;;;;;;;;;;;;;23.14;56.17;101588.38;5017284;28;19929;-56
2023/05/21 11:56:10;;;;;;;;;;;;;;;23.08;56.80;101586.69;5018745;28;21360;-51
2023/05/21 11:58:36;;;;;;;;;;;;;;;23.10;56.49;101582.28;5018203;28;20400;-57
2023/05/21 12:01:01;;;;;;;;;;;;;;;23.15;56.84;101584.84;5019596;28;20007;-56
2023/05/21 12:03:29;;;;;;;;;;;;;;;23.32;56.51;101580.25;5020619;28;19932;-56
2023/05/21 12:05:54;;;;;;;;;;;;;;;23.36;55.74;101578.44;5023164;28;20004;-55
2023/05/21 12:08:20;;;;;;;;;;;;;;;23.34;56.12;101575.84;5020932;28;20033;-56
2023/05/21 12:10:46;;;;;;;;;;;;;;;23.43;55.02;101581.00;5016218;28;19979;-56
2023/05/21 12:13:11;;;;;;;;;;;;;;;23.32;55.92;101572.38;5021279;28;19929;-56
2023/05/21 12:15:36;;;;;;;;;;;;;;;23.41;55.10;101576.63;5021648;28;20376;-56
2023/05/21 12:18:02;;;;;;;;;;;;;;;23.37;55.53;101565.31;5015268;28;19939;-56
2023/05/21 12:20:27;;;;;;;;;;;;;;;23.51;54.85;101568.63;5024209;28;20451;-56
2023/05/21 12:22:53;;;;;;;;;;;;;;;23.44;54.91;101560.84;5024125;28;19921;-55
2023/05/21 12:25:21;;;;;;;;;;;;;;;23.55;55.59;101557.19;5023071;28;19979;-55
2023/05/21 12:27:47;;;;;;;;;;;;;;;23.77;55.64;101557.75;5018828;28;19917;-55
2023/05/21 12:30:12;;;;;;;;;;;;;;;23.88;54.39;101559.34;5021906;28;19943;-56
2023/05/21 12:32:42;;;;;;;;;;;;;;;23.93;54.60;101561.00;5019340;28;19963;-56